Ava Foss — WDF5779 — position and weather

sailwx.info

Track history (hours):
 
Tides and Currents Weather Stations Pressure Air Temp Water Temp Dewpoint Dewpoint Depression Visibility Wind Speed Wind Dir Waves Ship Positions

Ava Foss

Owner: Foss Maritime Company, Seattle, WA. More information available from US FCC via Universal Licensing System and Coast Guard Vessel Documentation Center.

Last reported at 2014-Oct-23 03:33 UTC. Time now 2014-Oct-23 03:57 UTC.
Position N 33°51' W 118°24'.

Length 10 m; draft 2.5 m.

Type: Passenger vessel. MMSI: 367467120.

Date/timePositionNaut miles runAvg speedWind from/ knotsBaromVisibWave heightAir tempDewpointWater temp
2014-Oct-23 03:33N 33°51' W 118°24'0 0.0
2014-Oct-23 02:33N 33°51' W 118°24'0 0.0
2014-Oct-23 01:33N 33°51' W 118°24'0 0.0
2014-Oct-23 00:33N 33°51' W 118°24'0 0.0
2014-Oct-22 23:32N 33°51' W 118°24'0 0.5
2014-Oct-22 22:34N 33°51' W 118°24'0 0.5
2014-Oct-22 21:33N 33°51' W 118°24'0 0.0
2014-Oct-22 20:33N 33°51' W 118°24'5 4.6
2014-Oct-22 19:33N 33°54' W 118°27'5 4.6
2014-Oct-22 18:33N 33°50' W 118°24'0 0.2
2014-Oct-22 17:33N 33°51' W 118°24'0 0.0
2014-Oct-22 16:33N 33°51' W 118°24'0 0.0
2014-Oct-22 15:33N 33°51' W 118°24'0 0.0
2014-Oct-22 14:33N 33°51' W 118°24'0 0.0
2014-Oct-22 13:33N 33°51' W 118°24'0 0.0
2014-Oct-22 12:33N 33°51' W 118°24'0 0.0
2014-Oct-22 11:30N 33°51' W 118°24'0 0.0
2014-Oct-22 10:33N 33°51' W 118°24'0 0.0
2014-Oct-22 09:24N 33°51' W 118°24'0 0.0
2014-Oct-22 08:33N 33°51' W 118°24'0 0.0
2014-Oct-22 07:33N 33°51' W 118°24'0 0.0
2014-Oct-22 06:33N 33°51' W 118°24'0 0.0
2014-Oct-22 05:30N 33°51' W 118°24'0 0.0
2014-Oct-22 04:33N 33°51' W 118°24'0 0.0
2014-Oct-22 03:33N 33°51' W 118°24'0 0.0
2014-Oct-22 02:33N 33°51' W 118°24'1 1.0
2014-Oct-22 01:34N 33°51' W 118°25'1 1.0
2014-Oct-22 00:33N 33°51' W 118°24'0 0.0
2014-Oct-21 23:33N 33°51' W 118°24'0 0.0
2014-Oct-21 22:32N 33°51' W 118°24'2 1.8
2014-Oct-21 21:33N 33°51' W 118°26'2 1.8
2014-Oct-21 20:33N 33°51' W 118°24'0 0.0
2014-Oct-21 19:33N 33°51' W 118°24'0 0.0
2014-Oct-21 18:33N 33°51' W 118°24'0 0.0
2014-Oct-21 17:31N 33°51' W 118°24'0 0.0
2014-Oct-21 16:31N 33°51' W 118°24'0 0.0
2014-Oct-21 15:31N 33°51' W 118°24'0 0.0
2014-Oct-21 14:31N 33°51' W 118°24'0 0.1
2014-Oct-21 13:31N 33°51' W 118°24'0 0.1
2014-Oct-21 12:31N 33°51' W 118°24'0 0.0
2014-Oct-21 11:31N 33°51' W 118°24'0 0.0
2014-Oct-21 10:28N 33°51' W 118°24'0 0.0
2014-Oct-21 09:31N 33°51' W 118°24'0 0.0
2014-Oct-21 08:31N 33°51' W 118°24'0 0.0
2014-Oct-21 07:31N 33°51' W 118°24'0 0.0
2014-Oct-21 06:25N 33°51' W 118°24'0 0.0
2014-Oct-21 05:31N 33°51' W 118°24'0 0.0
2014-Oct-21 04:31N 33°51' W 118°24'0 0.0
2014-Oct-21 03:22N 33°51' W 118°24'0 0.0
2014-Oct-21 02:31N 33°51' W 118°24'0 0.0
2014-Oct-21 01:31N 33°51' W 118°24'0 0.0
2014-Oct-21 00:25N 33°51' W 118°24'0 0.0
2014-Oct-20 23:31N 33°51' W 118°24'0 0.0
2014-Oct-20 22:31N 33°51' W 118°24'0 0.0
2014-Oct-20 21:31N 33°51' W 118°24'0 0.0
2014-Oct-20 20:22N 33°51' W 118°24'0 0.0
2014-Oct-20 19:31N 33°51' W 118°24'5 5.1
2014-Oct-20 18:33N 33°55' W 118°27'5 4.9
2014-Oct-20 17:33N 33°51' W 118°24'6 6.1
2014-Oct-20 16:33N 33°54' W 118°29'6 6.1
2014-Oct-20 15:33N 33°51' W 118°24'5 5.2
2014-Oct-20 14:30N 33°54' W 118°29'5 5.2
2014-Oct-20 13:33N 33°51' W 118°24'1 0.6
2014-Oct-20 12:27N 33°51' W 118°24'0 0.0
2014-Oct-20 11:33N 33°51' W 118°24'0 0.0
2014-Oct-20 10:33N 33°51' W 118°24'0 0.0
2014-Oct-20 09:27N 33°51' W 118°24'0 0.0
2014-Oct-20 08:33N 33°51' W 118°24'0 0.0
2014-Oct-20 07:27N 33°51' W 118°24'0 0.0
2014-Oct-20 06:27N 33°51' W 118°24'0 0.0
2014-Oct-20 05:33N 33°51' W 118°24'0 0.0
2014-Oct-20 04:33N 33°51' W 118°24'0 0.0
2014-Oct-20 03:33N 33°51' W 118°24'0 0.0
2014-Oct-20 02:30N 33°51' W 118°24'0 0.0
2014-Oct-20 01:33N 33°51' W 118°24'0 0.0
2014-Oct-20 00:18N 33°51' W 118°24'0 0.0
2014-Oct-19 23:33N 33°51' W 118°24'5 4.9
2014-Oct-19 22:33N 33°54' W 118°27'5 4.8
2014-Oct-19 21:32N 33°51' W 118°24'0 0.0
2014-Oct-19 20:29N 33°51' W 118°24'0 0.0
2014-Oct-19 19:32N 33°51' W 118°24'0 0.0
2014-Oct-19 18:32N 33°51' W 118°24'0 0.4
2014-Oct-19 17:34N 33°51' W 118°24'3 2.7
2014-Oct-19 16:32N 33°52' W 118°27'2 2.3
2014-Oct-19 15:33N 33°55' W 118°27'0 0.4
2014-Oct-19 14:27N 33°54' W 118°27'5 0.2
2014-Oct-18 17:27N 33°51' W 118°24'0 0.0
2014-Oct-18 16:27N 33°51' W 118°24'0 0.0
2014-Oct-18 15:27N 33°51' W 118°24'0 0.0
2014-Oct-18 14:33N 33°51' W 118°24'0 0.1
2014-Oct-18 13:33N 33°51' W 118°24'0 0.1
2014-Oct-18 12:33N 33°51' W 118°24'0 0.0
2014-Oct-18 11:30N 33°51' W 118°24'0 0.0
2014-Oct-18 10:33N 33°51' W 118°24'0 0.0
2014-Oct-18 09:33N 33°51' W 118°24'0 0.0
2014-Oct-18 08:27N 33°51' W 118°24'0 0.0
2014-Oct-18 07:33N 33°51' W 118°24'0 0.0
2014-Oct-18 06:30N 33°51' W 118°24'0 0.0
2014-Oct-18 05:15N 33°51' W 118°24'0 0.0
2014-Oct-18 04:33N 33°51' W 118°24'0 0.0
2014-Oct-18 03:25N 33°51' W 118°24'0 0.0
2014-Oct-18 02:31N 33°51' W 118°24'0 0.0
2014-Oct-18 01:28N 33°51' W 118°24'0 0.0
2014-Oct-18 00:31N 33°51' W 118°24'0 0.0
2014-Oct-17 23:31N 33°51' W 118°24'0 0.0
2014-Oct-17 22:31N 33°51' W 118°24'0 0.0
2014-Oct-17 21:31N 33°51' W 118°24'0 0.0
2014-Oct-17 20:25N 33°51' W 118°24'0 0.0
2014-Oct-17 19:28N 33°51' W 118°24'0 0.0
2014-Oct-17 18:25N 33°51' W 118°24'0 0.0
2014-Oct-17 17:31N 33°51' W 118°24'0 0.0
2014-Oct-17 16:25N 33°51' W 118°24'0 0.0
2014-Oct-17 15:31N 33°51' W 118°24'0 0.0
2014-Oct-17 14:31N 33°51' W 118°24'0 0.0
2014-Oct-17 13:31N 33°51' W 118°24'0 0.0
2014-Oct-17 12:31N 33°51' W 118°24'0 0.0
2014-Oct-17 11:31N 33°51' W 118°24'0 0.0
2014-Oct-17 10:31N 33°51' W 118°24'0 0.0
2014-Oct-17 09:28N 33°51' W 118°24'0 0.0
2014-Oct-17 08:28N 33°51' W 118°24'0 0.0
2014-Oct-17 07:28N 33°51' W 118°24'0 0.0
2014-Oct-17 06:25N 33°51' W 118°24'0 0.0
2014-Oct-17 05:31N 33°51' W 118°24'0 0.0
2014-Oct-17 04:31N 33°51' W 118°24'0 0.0
2014-Oct-17 03:28N 33°51' W 118°24'0 0.0
2014-Oct-17 02:31N 33°51' W 118°24'0 0.0
2014-Oct-17 01:28N 33°51' W 118°24'0 0.0
2014-Oct-17 00:28N 33°51' W 118°24'0 0.0
2014-Oct-16 23:31N 33°51' W 118°24'0 0.0
2014-Oct-16 22:10N 33°51' W 118°24'0 0.0
2014-Oct-16 21:31N 33°51' W 118°24'0 0.0
2014-Oct-16 20:31N 33°51' W 118°24'0 0.0
2014-Oct-16 19:31N 33°51' W 118°24'0 0.0
2014-Oct-16 18:31N 33°51' W 118°24'0 0.0
2014-Oct-16 17:31N 33°51' W 118°24'0 0.1
2014-Oct-16 16:33N 33°50' W 118°24'3 3.3
2014-Oct-16 15:33N 33°53' W 118°27'3 3.2
2014-Oct-16 14:30N 33°51' W 118°24'0 0.0
2014-Oct-16 13:33N 33°51' W 118°24'0 0.0
2014-Oct-16 12:30N 33°51' W 118°24'0 0.0
2014-Oct-16 11:33N 33°51' W 118°24'0 0.0
2014-Oct-16 10:33N 33°51' W 118°24'0 0.0
2014-Oct-16 09:33N 33°51' W 118°24'0 0.0
2014-Oct-16 08:30N 33°51' W 118°24'0 0.0
2014-Oct-16 07:33N 33°51' W 118°24'0 0.0
2014-Oct-16 06:33N 33°51' W 118°24'0 0.0
2014-Oct-16 05:33N 33°51' W 118°24'0 0.0
2014-Oct-16 04:33N 33°51' W 118°24'0 0.0
2014-Oct-16 03:30N 33°51' W 118°24'0 0.0
2014-Oct-16 02:33N 33°51' W 118°24'0 0.0
2014-Oct-16 01:33N 33°51' W 118°24'0 0.0
2014-Oct-16 00:33N 33°51' W 118°24'0 0.0
2014-Oct-15 23:33N 33°51' W 118°24'0 0.0
2014-Oct-15 22:33N 33°51' W 118°24'0 0.0
2014-Oct-15 21:33N 33°51' W 118°24'0 0.0
2014-Oct-15 20:27N 33°51' W 118°24'0 0.0
2014-Oct-15 19:33N 33°51' W 118°24'0 0.0
2014-Oct-15 18:33N 33°51' W 118°24'0 0.0
2014-Oct-15 17:33N 33°51' W 118°24'0 0.0
2014-Oct-15 16:33N 33°51' W 118°24'0 0.0
2014-Oct-15 15:33N 33°51' W 118°24'0 0.0
2014-Oct-15 14:33N 33°51' W 118°24'0 0.0
2014-Oct-15 13:33N 33°51' W 118°24'0 0.0
2014-Oct-15 12:33N 33°51' W 118°24'0 0.0
2014-Oct-15 11:33N 33°51' W 118°24'0 0.0
2014-Oct-15 10:33N 33°51' W 118°24'0 0.0
2014-Oct-15 09:33N 33°51' W 118°24'0 0.0
2014-Oct-15 08:33N 33°51' W 118°24'0 0.0
2014-Oct-15 07:30N 33°51' W 118°24'0 0.0
2014-Oct-15 06:30N 33°51' W 118°24'0 0.0
2014-Oct-15 05:27N 33°51' W 118°24'0 0.0
2014-Oct-15 04:30N 33°51' W 118°24'0 0.0
2014-Oct-15 03:33N 33°51' W 118°24'0 0.0
2014-Oct-15 02:33N 33°51' W 118°24'0 0.0
2014-Oct-15 01:33N 33°51' W 118°24'0 0.0
2014-Oct-15 00:33N 33°51' W 118°24'0 0.0
2014-Oct-14 23:33N 33°51' W 118°24'0 0.0
2014-Oct-14 22:33N 33°51' W 118°24'0 0.0
2014-Oct-14 21:33N 33°51' W 118°24'0 0.0
2014-Oct-14 20:33N 33°51' W 118°24'0 0.0
2014-Oct-14 19:27N 33°51' W 118°24'0 0.0
2014-Oct-14 18:33N 33°51' W 118°24'0 0.0
2014-Oct-14 17:33N 33°51' W 118°24'0 0.0
2014-Oct-14 16:33N 33°51' W 118°24'0 0.0
2014-Oct-14 15:33N 33°51' W 118°24'3 2.6
2014-Oct-14 14:34N 33°52' W 118°26'3 2.6
2014-Oct-14 13:34N 33°51' W 118°24'0 0.0
2014-Oct-14 04:33N 33°51' W 118°24'5 4.5
2014-Oct-14 03:29N 33°54' W 118°27'5 5.2
2014-Oct-14 02:33N 33°51' W 118°24'0 0.0
2014-Oct-14 01:33N 33°51' W 118°24'0 0.0
2014-Oct-14 00:33N 33°51' W 118°24'0 0.0
2014-Oct-13 23:33N 33°51' W 118°24'0 0.0
2014-Oct-13 22:33N 33°51' W 118°24'0 0.0
2014-Oct-13 21:33N 33°51' W 118°24'0 0.0
2014-Oct-13 20:33N 33°51' W 118°24'1 1.2
2014-Oct-13 19:33N 33°51' W 118°25'4 3.4
2014-Oct-13 18:29N 33°54' W 118°28'5 5.1
2014-Oct-13 17:33N 33°51' W 118°24'0 0.0
2014-Oct-13 16:33N 33°51' W 118°24'5 0.5
2014-Oct-13 06:24N 33°54' W 118°27'5 5.5
2014-Oct-13 05:33N 33°51' W 118°24'0 0.0
2014-Oct-13 04:33N 33°51' W 118°24'  
Track history (hours):
 
Tides and Currents Weather Stations Pressure Air Temp Water Temp Dewpoint Dewpoint Depression Visibility Wind Speed Wind Dir Waves Ship Positions

Ava Foss

Owner: Foss Maritime Company, Seattle, WA. More information available from US FCC via Universal Licensing System and Coast Guard Vessel Documentation Center.

Last reported at 2014-Oct-23 03:33 UTC. Time now 2014-Oct-23 03:57 UTC.
Position N 33°51' W 118°24'.

Length 10 m; draft 2.5 m.

Type: Passenger vessel. MMSI: 367467120.

Date/timePositionNaut miles runAvg speedWind from/ knotsBaromVisibWave heightAir tempDewpointWater temp
2014-Oct-23 03:33N 33°51' W 118°24'0 0.0
2014-Oct-23 02:33N 33°51' W 118°24'0 0.0
2014-Oct-23 01:33N 33°51' W 118°24'0 0.0
2014-Oct-23 00:33N 33°51' W 118°24'0 0.0
2014-Oct-22 23:32N 33°51' W 118°24'0 0.5
2014-Oct-22 22:34N 33°51' W 118°24'0 0.5
2014-Oct-22 21:33N 33°51' W 118°24'0 0.0
2014-Oct-22 20:33N 33°51' W 118°24'5 4.6
2014-Oct-22 19:33N 33°54' W 118°27'5 4.6
2014-Oct-22 18:33N 33°50' W 118°24'0 0.2
2014-Oct-22 17:33N 33°51' W 118°24'0 0.0
2014-Oct-22 16:33N 33°51' W 118°24'0 0.0
2014-Oct-22 15:33N 33°51' W 118°24'0 0.0
2014-Oct-22 14:33N 33°51' W 118°24'0 0.0
2014-Oct-22 13:33N 33°51' W 118°24'0 0.0
2014-Oct-22 12:33N 33°51' W 118°24'0 0.0
2014-Oct-22 11:30N 33°51' W 118°24'0 0.0
2014-Oct-22 10:33N 33°51' W 118°24'0 0.0
2014-Oct-22 09:24N 33°51' W 118°24'0 0.0
2014-Oct-22 08:33N 33°51' W 118°24'0 0.0
2014-Oct-22 07:33N 33°51' W 118°24'0 0.0
2014-Oct-22 06:33N 33°51' W 118°24'0 0.0
2014-Oct-22 05:30N 33°51' W 118°24'0 0.0
2014-Oct-22 04:33N 33°51' W 118°24'0 0.0
2014-Oct-22 03:33N 33°51' W 118°24'0 0.0
2014-Oct-22 02:33N 33°51' W 118°24'1 1.0
2014-Oct-22 01:34N 33°51' W 118°25'1 1.0
2014-Oct-22 00:33N 33°51' W 118°24'0 0.0
2014-Oct-21 23:33N 33°51' W 118°24'0 0.0
2014-Oct-21 22:32N 33°51' W 118°24'2 1.8
2014-Oct-21 21:33N 33°51' W 118°26'2 1.8
2014-Oct-21 20:33N 33°51' W 118°24'0 0.0
2014-Oct-21 19:33N 33°51' W 118°24'0 0.0
2014-Oct-21 18:33N 33°51' W 118°24'0 0.0
2014-Oct-21 17:31N 33°51' W 118°24'0 0.0
2014-Oct-21 16:31N 33°51' W 118°24'0 0.0
2014-Oct-21 15:31N 33°51' W 118°24'0 0.0
2014-Oct-21 14:31N 33°51' W 118°24'0 0.1
2014-Oct-21 13:31N 33°51' W 118°24'0 0.1
2014-Oct-21 12:31N 33°51' W 118°24'0 0.0
2014-Oct-21 11:31N 33°51' W 118°24'0 0.0
2014-Oct-21 10:28N 33°51' W 118°24'0 0.0
2014-Oct-21 09:31N 33°51' W 118°24'0 0.0
2014-Oct-21 08:31N 33°51' W 118°24'0 0.0
2014-Oct-21 07:31N 33°51' W 118°24'0 0.0
2014-Oct-21 06:25N 33°51' W 118°24'0 0.0
2014-Oct-21 05:31N 33°51' W 118°24'0 0.0
2014-Oct-21 04:31N 33°51' W 118°24'0 0.0
2014-Oct-21 03:22N 33°51' W 118°24'0 0.0
2014-Oct-21 02:31N 33°51' W 118°24'0 0.0
2014-Oct-21 01:31N 33°51' W 118°24'0 0.0
2014-Oct-21 00:25N 33°51' W 118°24'0 0.0
2014-Oct-20 23:31N 33°51' W 118°24'0 0.0
2014-Oct-20 22:31N 33°51' W 118°24'0 0.0
2014-Oct-20 21:31N 33°51' W 118°24'0 0.0
2014-Oct-20 20:22N 33°51' W 118°24'0 0.0
2014-Oct-20 19:31N 33°51' W 118°24'5 5.1
2014-Oct-20 18:33N 33°55' W 118°27'5 4.9
2014-Oct-20 17:33N 33°51' W 118°24'6 6.1
2014-Oct-20 16:33N 33°54' W 118°29'6 6.1
2014-Oct-20 15:33N 33°51' W 118°24'5 5.2
2014-Oct-20 14:30N 33°54' W 118°29'5 5.2
2014-Oct-20 13:33N 33°51' W 118°24'1 0.6
2014-Oct-20 12:27N 33°51' W 118°24'0 0.0
2014-Oct-20 11:33N 33°51' W 118°24'0 0.0
2014-Oct-20 10:33N 33°51' W 118°24'0 0.0
2014-Oct-20 09:27N 33°51' W 118°24'0 0.0
2014-Oct-20 08:33N 33°51' W 118°24'0 0.0
2014-Oct-20 07:27N 33°51' W 118°24'0 0.0
2014-Oct-20 06:27N 33°51' W 118°24'0 0.0
2014-Oct-20 05:33N 33°51' W 118°24'0 0.0
2014-Oct-20 04:33N 33°51' W 118°24'0 0.0
2014-Oct-20 03:33N 33°51' W 118°24'0 0.0
2014-Oct-20 02:30N 33°51' W 118°24'0 0.0
2014-Oct-20 01:33N 33°51' W 118°24'0 0.0
2014-Oct-20 00:18N 33°51' W 118°24'0 0.0
2014-Oct-19 23:33N 33°51' W 118°24'5 4.9
2014-Oct-19 22:33N 33°54' W 118°27'5 4.8
2014-Oct-19 21:32N 33°51' W 118°24'0 0.0
2014-Oct-19 20:29N 33°51' W 118°24'0 0.0
2014-Oct-19 19:32N 33°51' W 118°24'0 0.0
2014-Oct-19 18:32N 33°51' W 118°24'0 0.4
2014-Oct-19 17:34N 33°51' W 118°24'3 2.7
2014-Oct-19 16:32N 33°52' W 118°27'2 2.3
2014-Oct-19 15:33N 33°55' W 118°27'0 0.4
2014-Oct-19 14:27N 33°54' W 118°27'5 0.2
2014-Oct-18 17:27N 33°51' W 118°24'0 0.0
2014-Oct-18 16:27N 33°51' W 118°24'0 0.0
2014-Oct-18 15:27N 33°51' W 118°24'0 0.0
2014-Oct-18 14:33N 33°51' W 118°24'0 0.1
2014-Oct-18 13:33N 33°51' W 118°24'0 0.1
2014-Oct-18 12:33N 33°51' W 118°24'0 0.0
2014-Oct-18 11:30N 33°51' W 118°24'0 0.0
2014-Oct-18 10:33N 33°51' W 118°24'0 0.0
2014-Oct-18 09:33N 33°51' W 118°24'0 0.0
2014-Oct-18 08:27N 33°51' W 118°24'0 0.0
2014-Oct-18 07:33N 33°51' W 118°24'0 0.0
2014-Oct-18 06:30N 33°51' W 118°24'0 0.0
2014-Oct-18 05:15N 33°51' W 118°24'0 0.0
2014-Oct-18 04:33N 33°51' W 118°24'0 0.0
2014-Oct-18 03:25N 33°51' W 118°24'0 0.0
2014-Oct-18 02:31N 33°51' W 118°24'0 0.0
2014-Oct-18 01:28N 33°51' W 118°24'0 0.0
2014-Oct-18 00:31N 33°51' W 118°24'0 0.0
2014-Oct-17 23:31N 33°51' W 118°24'0 0.0
2014-Oct-17 22:31N 33°51' W 118°24'0 0.0
2014-Oct-17 21:31N 33°51' W 118°24'0 0.0
2014-Oct-17 20:25N 33°51' W 118°24'0 0.0
2014-Oct-17 19:28N 33°51' W 118°24'0 0.0
2014-Oct-17 18:25N 33°51' W 118°24'0 0.0
2014-Oct-17 17:31N 33°51' W 118°24'0 0.0
2014-Oct-17 16:25N 33°51' W 118°24'0 0.0
2014-Oct-17 15:31N 33°51' W 118°24'0 0.0
2014-Oct-17 14:31N 33°51' W 118°24'0 0.0
2014-Oct-17 13:31N 33°51' W 118°24'0 0.0
2014-Oct-17 12:31N 33°51' W 118°24'0 0.0
2014-Oct-17 11:31N 33°51' W 118°24'0 0.0
2014-Oct-17 10:31N 33°51' W 118°24'0 0.0
2014-Oct-17 09:28N 33°51' W 118°24'0 0.0
2014-Oct-17 08:28N 33°51' W 118°24'0 0.0
2014-Oct-17 07:28N 33°51' W 118°24'0 0.0
2014-Oct-17 06:25N 33°51' W 118°24'0 0.0
2014-Oct-17 05:31N 33°51' W 118°24'0 0.0
2014-Oct-17 04:31N 33°51' W 118°24'0 0.0
2014-Oct-17 03:28N 33°51' W 118°24'0 0.0
2014-Oct-17 02:31N 33°51' W 118°24'0 0.0
2014-Oct-17 01:28N 33°51' W 118°24'0 0.0
2014-Oct-17 00:28N 33°51' W 118°24'0 0.0
2014-Oct-16 23:31N 33°51' W 118°24'0 0.0
2014-Oct-16 22:10N 33°51' W 118°24'0 0.0
2014-Oct-16 21:31N 33°51' W 118°24'0 0.0
2014-Oct-16 20:31N 33°51' W 118°24'0 0.0
2014-Oct-16 19:31N 33°51' W 118°24'0 0.0
2014-Oct-16 18:31N 33°51' W 118°24'0 0.0
2014-Oct-16 17:31N 33°51' W 118°24'0 0.1
2014-Oct-16 16:33N 33°50' W 118°24'3 3.3
2014-Oct-16 15:33N 33°53' W 118°27'3 3.2
2014-Oct-16 14:30N 33°51' W 118°24'0 0.0
2014-Oct-16 13:33N 33°51' W 118°24'0 0.0
2014-Oct-16 12:30N 33°51' W 118°24'0 0.0
2014-Oct-16 11:33N 33°51' W 118°24'0 0.0
2014-Oct-16 10:33N 33°51' W 118°24'0 0.0
2014-Oct-16 09:33N 33°51' W 118°24'0 0.0
2014-Oct-16 08:30N 33°51' W 118°24'0 0.0
2014-Oct-16 07:33N 33°51' W 118°24'0 0.0
2014-Oct-16 06:33N 33°51' W 118°24'0 0.0
2014-Oct-16 05:33N 33°51' W 118°24'0 0.0
2014-Oct-16 04:33N 33°51' W 118°24'0 0.0
2014-Oct-16 03:30N 33°51' W 118°24'0 0.0
2014-Oct-16 02:33N 33°51' W 118°24'0 0.0
2014-Oct-16 01:33N 33°51' W 118°24'0 0.0
2014-Oct-16 00:33N 33°51' W 118°24'0 0.0
2014-Oct-15 23:33N 33°51' W 118°24'0 0.0
2014-Oct-15 22:33N 33°51' W 118°24'0 0.0
2014-Oct-15 21:33N 33°51' W 118°24'0 0.0
2014-Oct-15 20:27N 33°51' W 118°24'0 0.0
2014-Oct-15 19:33N 33°51' W 118°24'0 0.0
2014-Oct-15 18:33N 33°51' W 118°24'0 0.0
2014-Oct-15 17:33N 33°51' W 118°24'0 0.0
2014-Oct-15 16:33N 33°51' W 118°24'0 0.0
2014-Oct-15 15:33N 33°51' W 118°24'0 0.0
2014-Oct-15 14:33N 33°51' W 118°24'0 0.0
2014-Oct-15 13:33N 33°51' W 118°24'0 0.0
2014-Oct-15 12:33N 33°51' W 118°24'0 0.0
2014-Oct-15 11:33N 33°51' W 118°24'0 0.0
2014-Oct-15 10:33N 33°51' W 118°24'0 0.0
2014-Oct-15 09:33N 33°51' W 118°24'0 0.0
2014-Oct-15 08:33N 33°51' W 118°24'0 0.0
2014-Oct-15 07:30N 33°51' W 118°24'0 0.0
2014-Oct-15 06:30N 33°51' W 118°24'0 0.0
2014-Oct-15 05:27N 33°51' W 118°24'0 0.0
2014-Oct-15 04:30N 33°51' W 118°24'0 0.0
2014-Oct-15 03:33N 33°51' W 118°24'0 0.0
2014-Oct-15 02:33N 33°51' W 118°24'0 0.0
2014-Oct-15 01:33N 33°51' W 118°24'0 0.0
2014-Oct-15 00:33N 33°51' W 118°24'0 0.0
2014-Oct-14 23:33N 33°51' W 118°24'0 0.0
2014-Oct-14 22:33N 33°51' W 118°24'0 0.0
2014-Oct-14 21:33N 33°51' W 118°24'0 0.0
2014-Oct-14 20:33N 33°51' W 118°24'0 0.0
2014-Oct-14 19:27N 33°51' W 118°24'0 0.0
2014-Oct-14 18:33N 33°51' W 118°24'0 0.0
2014-Oct-14 17:33N 33°51' W 118°24'0 0.0
2014-Oct-14 16:33N 33°51' W 118°24'0 0.0
2014-Oct-14 15:33N 33°51' W 118°24'3 2.6
2014-Oct-14 14:34N 33°52' W 118°26'3 2.6
2014-Oct-14 13:34N 33°51' W 118°24'0 0.0
2014-Oct-14 04:33N 33°51' W 118°24'5 4.5
2014-Oct-14 03:29N 33°54' W 118°27'5 5.2
2014-Oct-14 02:33N 33°51' W 118°24'0 0.0
2014-Oct-14 01:33N 33°51' W 118°24'0 0.0
2014-Oct-14 00:33N 33°51' W 118°24'0 0.0
2014-Oct-13 23:33N 33°51' W 118°24'0 0.0
2014-Oct-13 22:33N 33°51' W 118°24'0 0.0
2014-Oct-13 21:33N 33°51' W 118°24'0 0.0
2014-Oct-13 20:33N 33°51' W 118°24'1 1.2
2014-Oct-13 19:33N 33°51' W 118°25'4 3.4
2014-Oct-13 18:29N 33°54' W 118°28'5 5.1
2014-Oct-13 17:33N 33°51' W 118°24'0 0.0
2014-Oct-13 16:33N 33°51' W 118°24'5 0.5
2014-Oct-13 06:24N 33°54' W 118°27'5 5.5
2014-Oct-13 05:33N 33°51' W 118°24'0 0.0
2014-Oct-13 04:33N 33°51' W 118°24'  

Dump ship's entire track history